sensor_id;sensor_type;location;lat;lon;timestamp;P1;durP1;ratioP1;P2;durP2;ratioP2
13897;SDS011;7019;50.766;4.474;2023-09-19T00:02:04;9.37;;;1.67;;
13897;SDS011;7019;50.766;4.474;2023-09-19T00:04:34;7.20;;;2.10;;
13897;SDS011;7019;50.766;4.474;2023-09-19T00:07:04;8.27;;;3.07;;
13897;SDS011;7019;50.766;4.474;2023-09-19T00:09:31;8.93;;;1.90;;
13897;SDS011;7019;50.766;4.474;2023-09-19T00:12:02;13.00;;;2.00;;
13897;SDS011;7019;50.766;4.474;2023-09-19T00:14:30;8.07;;;2.10;;
13897;SDS011;7019;50.766;4.474;2023-09-19T00:16:59;7.70;;;1.50;;
13897;SDS011;7019;50.766;4.474;2023-09-19T00:19:31;8.27;;;1.97;;
13897;SDS011;7019;50.766;4.474;2023-09-19T00:22:00;6.57;;;1.83;;
13897;SDS011;7019;50.766;4.474;2023-09-19T00:24:27;6.70;;;1.93;;
13897;SDS011;7019;50.766;4.474;2023-09-19T00:26:54;11.20;;;2.10;;
13897;SDS011;7019;50.766;4.474;2023-09-19T00:29:24;10.07;;;2.20;;
13897;SDS011;7019;50.766;4.474;2023-09-19T00:31:54;5.37;;;1.57;;
13897;SDS011;7019;50.766;4.474;2023-09-19T00:34:22;9.23;;;1.53;;
13897;SDS011;7019;50.766;4.474;2023-09-19T00:36:50;9.63;;;2.70;;
13897;SDS011;7019;50.766;4.474;2023-09-19T00:39:21;9.40;;;2.00;;
13897;SDS011;7019;50.766;4.474;2023-09-19T00:41:50;6.23;;;1.70;;
13897;SDS011;7019;50.766;4.474;2023-09-19T00:44:18;6.43;;;1.83;;
13897;SDS011;7019;50.766;4.474;2023-09-19T00:46:46;9.07;;;2.13;;
13897;SDS011;7019;50.766;4.474;2023-09-19T00:49:15;12.27;;;2.33;;
13897;SDS011;7019;50.766;4.474;2023-09-19T00:51:42;8.63;;;1.83;;
13897;SDS011;7019;50.766;4.474;2023-09-19T00:54:12;7.27;;;1.73;;
13897;SDS011;7019;50.766;4.474;2023-09-19T00:56:44;8.27;;;1.87;;
13897;SDS011;7019;50.766;4.474;2023-09-19T00:59:14;5.53;;;1.70;;
13897;SDS011;7019;50.766;4.474;2023-09-19T01:01:41;8.50;;;1.67;;
13897;SDS011;7019;50.766;4.474;2023-09-19T01:04:11;6.60;;;1.60;;
13897;SDS011;7019;50.766;4.474;2023-09-19T01:06:38;7.93;;;2.13;;
13897;SDS011;7019;50.766;4.474;2023-09-19T01:09:06;9.80;;;2.20;;
13897;SDS011;7019;50.766;4.474;2023-09-19T01:11:35;9.27;;;1.87;;
13897;SDS011;7019;50.766;4.474;2023-09-19T01:14:11;11.47;;;1.83;;
13897;SDS011;7019;50.766;4.474;2023-09-19T01:16:48;9.17;;;2.30;;
13897;SDS011;7019;50.766;4.474;2023-09-19T01:19:33;8.13;;;1.87;;
13897;SDS011;7019;50.766;4.474;2023-09-19T01:22:29;7.27;;;1.73;;
13897;SDS011;7019;50.766;4.474;2023-09-19T01:25:07;6.53;;;1.80;;
13897;SDS011;7019;50.766;4.474;2023-09-19T01:27:59;5.97;;;1.97;;
13897;SDS011;7019;50.766;4.474;2023-09-19T01:30:44;8.60;;;1.80;;
13897;SDS011;7019;50.766;4.474;2023-09-19T01:33:12;8.30;;;1.47;;
13897;SDS011;7019;50.766;4.474;2023-09-19T01:35:40;5.27;;;1.80;;
13897;SDS011;7019;50.766;4.474;2023-09-19T01:38:07;7.30;;;2.13;;
13897;SDS011;7019;50.766;4.474;2023-09-19T01:40:39;11.87;;;1.57;;
13897;SDS011;7019;50.766;4.474;2023-09-19T01:43:10;9.40;;;1.73;;
13897;SDS011;7019;50.766;4.474;2023-09-19T01:45:43;10.67;;;2.20;;
13897;SDS011;7019;50.766;4.474;2023-09-19T01:48:19;9.27;;;2.40;;
13897;SDS011;7019;50.766;4.474;2023-09-19T01:51:05;13.00;;;2.07;;
13897;SDS011;7019;50.766;4.474;2023-09-19T01:53:36;9.00;;;2.57;;
13897;SDS011;7019;50.766;4.474;2023-09-19T01:56:07;7.30;;;1.93;;
13897;SDS011;7019;50.766;4.474;2023-09-19T01:58:39;11.93;;;2.23;;
13897;SDS011;7019;50.766;4.474;2023-09-19T02:01:15;11.47;;;1.87;;
13897;SDS011;7019;50.766;4.474;2023-09-19T02:03:46;7.93;;;2.10;;
13897;SDS011;7019;50.766;4.474;2023-09-19T02:06:14;7.03;;;2.80;;
13897;SDS011;7019;50.766;4.474;2023-09-19T02:08:42;10.37;;;1.80;;
13897;SDS011;7019;50.766;4.474;2023-09-19T02:11:10;9.10;;;1.83;;
13897;SDS011;7019;50.766;4.474;2023-09-19T02:13:38;7.33;;;1.93;;
13897;SDS011;7019;50.766;4.474;2023-09-19T02:16:05;7.20;;;2.60;;
13897;SDS011;7019;50.766;4.474;2023-09-19T02:18:36;10.00;;;2.77;;
13897;SDS011;7019;50.766;4.474;2023-09-19T02:21:04;9.53;;;2.23;;
13897;SDS011;7019;50.766;4.474;2023-09-19T02:23:32;7.93;;;2.20;;
13897;SDS011;7019;50.766;4.474;2023-09-19T02:25:59;12.80;;;2.53;;
13897;SDS011;7019;50.766;4.474;2023-09-19T02:28:26;8.20;;;1.90;;
13897;SDS011;7019;50.766;4.474;2023-09-19T02:30:55;10.57;;;2.10;;
13897;SDS011;7019;50.766;4.474;2023-09-19T02:33:22;10.23;;;2.40;;
13897;SDS011;7019;50.766;4.474;2023-09-19T02:35:53;4.73;;;1.57;;
13897;SDS011;7019;50.766;4.474;2023-09-19T02:38:22;8.60;;;2.20;;
13897;SDS011;7019;50.766;4.474;2023-09-19T02:40:51;9.40;;;1.50;;
13897;SDS011;7019;50.766;4.474;2023-09-19T02:43:20;11.30;;;1.77;;
13897;SDS011;7019;50.766;4.474;2023-09-19T02:45:47;5.97;;;1.90;;
13897;SDS011;7019;50.766;4.474;2023-09-19T02:48:15;12.73;;;2.20;;
13897;SDS011;7019;50.766;4.474;2023-09-19T02:50:43;4.57;;;1.57;;
13897;SDS011;7019;50.766;4.474;2023-09-19T02:53:12;10.80;;;2.37;;
13897;SDS011;7019;50.766;4.474;2023-09-19T02:55:40;10.43;;;2.50;;
13897;SDS011;7019;50.766;4.474;2023-09-19T02:58:08;10.40;;;2.67;;
13897;SDS011;7019;50.766;4.474;2023-09-19T03:00:36;10.60;;;1.93;;
13897;SDS011;7019;50.766;4.474;2023-09-19T03:03:04;11.53;;;2.47;;
13897;SDS011;7019;50.766;4.474;2023-09-19T03:05:33;8.77;;;2.33;;
13897;SDS011;7019;50.766;4.474;2023-09-19T03:08:00;11.40;;;2.03;;
13897;SDS011;7019;50.766;4.474;2023-09-19T03:10:29;11.37;;;2.27;;
13897;SDS011;7019;50.766;4.474;2023-09-19T03:12:57;10.47;;;2.93;;
13897;SDS011;7019;50.766;4.474;2023-09-19T03:15:25;7.10;;;2.50;;
13897;SDS011;7019;50.766;4.474;2023-09-19T03:17:52;5.13;;;1.40;;
13897;SDS011;7019;50.766;4.474;2023-09-19T03:20:19;7.87;;;2.23;;
13897;SDS011;7019;50.766;4.474;2023-09-19T03:22:47;8.00;;;1.97;;
13897;SDS011;7019;50.766;4.474;2023-09-19T03:25:14;7.10;;;2.23;;
13897;SDS011;7019;50.766;4.474;2023-09-19T03:27:43;8.67;;;1.93;;
13897;SDS011;7019;50.766;4.474;2023-09-19T03:30:11;9.30;;;1.87;;
13897;SDS011;7019;50.766;4.474;2023-09-19T03:32:43;10.87;;;2.23;;
13897;SDS011;7019;50.766;4.474;2023-09-19T03:35:12;9.43;;;2.70;;
13897;SDS011;7019;50.766;4.474;2023-09-19T03:37:39;6.90;;;1.33;;
13897;SDS011;7019;50.766;4.474;2023-09-19T03:40:07;12.77;;;2.30;;
13897;SDS011;7019;50.766;4.474;2023-09-19T03:42:37;6.80;;;1.77;;
13897;SDS011;7019;50.766;4.474;2023-09-19T03:45:07;7.00;;;2.37;;
13897;SDS011;7019;50.766;4.474;2023-09-19T03:47:38;5.67;;;1.80;;
13897;SDS011;7019;50.766;4.474;2023-09-19T03:50:05;7.73;;;1.87;;
13897;SDS011;7019;50.766;4.474;2023-09-19T03:52:33;9.33;;;1.90;;
13897;SDS011;7019;50.766;4.474;2023-09-19T03:55:00;10.27;;;2.23;;
13897;SDS011;7019;50.766;4.474;2023-09-19T03:57:29;9.87;;;1.80;;
13897;SDS011;7019;50.766;4.474;2023-09-19T03:59:56;9.23;;;2.07;;
13897;SDS011;7019;50.766;4.474;2023-09-19T04:02:25;15.70;;;2.27;;
13897;SDS011;7019;50.766;4.474;2023-09-19T04:04:58;14.93;;;2.23;;
13897;SDS011;7019;50.766;4.474;2023-09-19T04:07:25;10.60;;;2.47;;
13897;SDS011;7019;50.766;4.474;2023-09-19T04:09:54;7.80;;;1.83;;
13897;SDS011;7019;50.766;4.474;2023-09-19T04:12:21;8.10;;;2.33;;
13897;SDS011;7019;50.766;4.474;2023-09-19T04:14:48;5.90;;;1.73;;
13897;SDS011;7019;50.766;4.474;2023-09-19T04:17:15;5.67;;;1.90;;
13897;SDS011;7019;50.766;4.474;2023-09-19T04:19:45;11.80;;;2.20;;
13897;SDS011;7019;50.766;4.474;2023-09-19T04:22:12;10.40;;;2.00;;
13897;SDS011;7019;50.766;4.474;2023-09-19T04:24:39;10.70;;;1.83;;
13897;SDS011;7019;50.766;4.474;2023-09-19T04:27:06;7.97;;;1.90;;
13897;SDS011;7019;50.766;4.474;2023-09-19T04:29:33;9.87;;;2.03;;
13897;SDS011;7019;50.766;4.474;2023-09-19T04:32:00;10.07;;;1.90;;
13897;SDS011;7019;50.766;4.474;2023-09-19T04:34:29;11.37;;;2.00;;
13897;SDS011;7019;50.766;4.474;2023-09-19T04:36:58;10.53;;;2.90;;
13897;SDS011;7019;50.766;4.474;2023-09-19T04:39:25;13.50;;;2.87;;
13897;SDS011;7019;50.766;4.474;2023-09-19T04:41:53;7.83;;;1.63;;
13897;SDS011;7019;50.766;4.474;2023-09-19T04:44:20;8.40;;;1.47;;
13897;SDS011;7019;50.766;4.474;2023-09-19T04:46:47;7.23;;;1.70;;
13897;SDS011;7019;50.766;4.474;2023-09-19T04:49:14;6.93;;;1.53;;
13897;SDS011;7019;50.766;4.474;2023-09-19T04:51:42;7.30;;;2.07;;
13897;SDS011;7019;50.766;4.474;2023-09-19T04:54:13;5.87;;;1.60;;
13897;SDS011;7019;50.766;4.474;2023-09-19T04:56:41;14.23;;;2.63;;
13897;SDS011;7019;50.766;4.474;2023-09-19T04:59:08;8.37;;;1.83;;
13897;SDS011;7019;50.766;4.474;2023-09-19T05:01:36;10.73;;;2.27;;
13897;SDS011;7019;50.766;4.474;2023-09-19T05:04:03;11.77;;;2.43;;
13897;SDS011;7019;50.766;4.474;2023-09-19T05:06:30;5.17;;;1.70;;
13897;SDS011;7019;50.766;4.474;2023-09-19T05:09:00;8.40;;;2.03;;
13897;SDS011;7019;50.766;4.474;2023-09-19T05:11:31;11.50;;;2.20;;
13897;SDS011;7019;50.766;4.474;2023-09-19T05:13:59;9.20;;;2.27;;
13897;SDS011;7019;50.766;4.474;2023-09-19T05:16:28;10.37;;;1.67;;
13897;SDS011;7019;50.766;4.474;2023-09-19T05:18:56;12.30;;;2.27;;
13897;SDS011;7019;50.766;4.474;2023-09-19T05:21:25;8.07;;;2.13;;
13897;SDS011;7019;50.766;4.474;2023-09-19T05:23:54;7.67;;;2.60;;
13897;SDS011;7019;50.766;4.474;2023-09-19T05:26:21;11.43;;;2.13;;
13897;SDS011;7019;50.766;4.474;2023-09-19T05:28:49;11.27;;;1.60;;
13897;SDS011;7019;50.766;4.474;2023-09-19T05:31:18;7.17;;;1.60;;
13897;SDS011;7019;50.766;4.474;2023-09-19T05:33:45;10.03;;;2.17;;
13897;SDS011;7019;50.766;4.474;2023-09-19T05:36:12;9.13;;;1.67;;
13897;SDS011;7019;50.766;4.474;2023-09-19T05:38:42;13.03;;;2.17;;
13897;SDS011;7019;50.766;4.474;2023-09-19T05:41:09;9.90;;;1.90;;
13897;SDS011;7019;50.766;4.474;2023-09-19T05:43:38;8.17;;;2.23;;
13897;SDS011;7019;50.766;4.474;2023-09-19T05:46:07;10.17;;;2.70;;
13897;SDS011;7019;50.766;4.474;2023-09-19T05:48:34;8.13;;;1.73;;
13897;SDS011;7019;50.766;4.474;2023-09-19T05:51:04;6.83;;;2.00;;
13897;SDS011;7019;50.766;4.474;2023-09-19T05:53:31;5.20;;;1.60;;
13897;SDS011;7019;50.766;4.474;2023-09-19T05:55:58;10.30;;;2.23;;
13897;SDS011;7019;50.766;4.474;2023-09-19T05:58:26;8.17;;;1.80;;
13897;SDS011;7019;50.766;4.474;2023-09-19T06:00:53;9.47;;;2.00;;
13897;SDS011;7019;50.766;4.474;2023-09-19T06:03:22;7.37;;;2.03;;
13897;SDS011;7019;50.766;4.474;2023-09-19T06:05:49;7.67;;;2.00;;
13897;SDS011;7019;50.766;4.474;2023-09-19T06:08:18;13.47;;;2.50;;
13897;SDS011;7019;50.766;4.474;2023-09-19T06:10:45;10.43;;;1.90;;
13897;SDS011;7019;50.766;4.474;2023-09-19T06:13:14;6.67;;;2.03;;
13897;SDS011;7019;50.766;4.474;2023-09-19T06:15:41;8.33;;;1.90;;
13897;SDS011;7019;50.766;4.474;2023-09-19T06:18:10;10.77;;;2.03;;
13897;SDS011;7019;50.766;4.474;2023-09-19T06:20:41;6.97;;;2.27;;
13897;SDS011;7019;50.766;4.474;2023-09-19T06:23:09;8.93;;;1.77;;
13897;SDS011;7019;50.766;4.474;2023-09-19T06:25:37;10.97;;;1.93;;
13897;SDS011;7019;50.766;4.474;2023-09-19T06:28:04;10.57;;;1.70;;
13897;SDS011;7019;50.766;4.474;2023-09-19T06:30:33;7.33;;;2.00;;
13897;SDS011;7019;50.766;4.474;2023-09-19T06:33:01;7.03;;;2.43;;
13897;SDS011;7019;50.766;4.474;2023-09-19T06:35:30;11.90;;;2.30;;
13897;SDS011;7019;50.766;4.474;2023-09-19T06:38:01;6.87;;;1.80;;
13897;SDS011;7019;50.766;4.474;2023-09-19T06:40:29;5.73;;;1.40;;
13897;SDS011;7019;50.766;4.474;2023-09-19T06:42:56;6.37;;;2.13;;
13897;SDS011;7019;50.766;4.474;2023-09-19T06:45:23;12.67;;;2.17;;
13897;SDS011;7019;50.766;4.474;2023-09-19T06:47:52;7.37;;;2.10;;
13897;SDS011;7019;50.766;4.474;2023-09-19T06:50:20;7.00;;;1.80;;
13897;SDS011;7019;50.766;4.474;2023-09-19T06:52:48;5.90;;;1.77;;
13897;SDS011;7019;50.766;4.474;2023-09-19T06:55:18;6.77;;;1.27;;
13897;SDS011;7019;50.766;4.474;2023-09-19T06:57:45;6.30;;;1.60;;
13897;SDS011;7019;50.766;4.474;2023-09-19T07:00:13;8.37;;;2.50;;
13897;SDS011;7019;50.766;4.474;2023-09-19T07:02:43;6.63;;;1.47;;
13897;SDS011;7019;50.766;4.474;2023-09-19T07:05:10;10.80;;;1.80;;
13897;SDS011;7019;50.766;4.474;2023-09-19T07:07:38;6.67;;;1.63;;
13897;SDS011;7019;50.766;4.474;2023-09-19T07:10:05;5.47;;;1.37;;
13897;SDS011;7019;50.766;4.474;2023-09-19T07:12:34;6.70;;;1.87;;
13897;SDS011;7019;50.766;4.474;2023-09-19T07:15:02;7.87;;;1.70;;
13897;SDS011;7019;50.766;4.474;2023-09-19T07:17:31;9.33;;;1.43;;
13897;SDS011;7019;50.766;4.474;2023-09-19T07:19:58;5.37;;;1.83;;
13897;SDS011;7019;50.766;4.474;2023-09-19T07:22:25;8.00;;;1.70;;
13897;SDS011;7019;50.766;4.474;2023-09-19T07:24:52;6.10;;;1.70;;
13897;SDS011;7019;50.766;4.474;2023-09-19T07:27:19;6.17;;;1.60;;
13897;SDS011;7019;50.766;4.474;2023-09-19T07:29:48;4.37;;;1.67;;
13897;SDS011;7019;50.766;4.474;2023-09-19T07:32:15;6.53;;;1.53;;
13897;SDS011;7019;50.766;4.474;2023-09-19T07:34:43;7.43;;;1.53;;
13897;SDS011;7019;50.766;4.474;2023-09-19T07:37:10;7.87;;;1.37;;
13897;SDS011;7019;50.766;4.474;2023-09-19T07:39:38;8.47;;;2.00;;
13897;SDS011;7019;50.766;4.474;2023-09-19T07:42:06;7.97;;;1.63;;
13897;SDS011;7019;50.766;4.474;2023-09-19T07:44:34;10.10;;;1.73;;
13897;SDS011;7019;50.766;4.474;2023-09-19T07:47:03;7.87;;;2.00;;
13897;SDS011;7019;50.766;4.474;2023-09-19T07:49:30;10.60;;;1.83;;
13897;SDS011;7019;50.766;4.474;2023-09-19T07:51:58;7.27;;;1.50;;
13897;SDS011;7019;50.766;4.474;2023-09-19T07:54:25;6.13;;;1.83;;
13897;SDS011;7019;50.766;4.474;2023-09-19T07:56:55;5.83;;;1.30;;
13897;SDS011;7019;50.766;4.474;2023-09-19T07:59:23;4.97;;;1.53;;
13897;SDS011;7019;50.766;4.474;2023-09-19T08:01:50;3.90;;;1.57;;
13897;SDS011;7019;50.766;4.474;2023-09-19T08:04:19;10.33;;;1.27;;
13897;SDS011;7019;50.766;4.474;2023-09-19T08:06:46;7.97;;;1.90;;
13897;SDS011;7019;50.766;4.474;2023-09-19T08:09:17;6.77;;;1.50;;
13897;SDS011;7019;50.766;4.474;2023-09-19T08:11:46;11.17;;;1.60;;
13897;SDS011;7019;50.766;4.474;2023-09-19T08:14:13;10.80;;;1.77;;
13897;SDS011;7019;50.766;4.474;2023-09-19T08:16:40;10.10;;;2.87;;
13897;SDS011;7019;50.766;4.474;2023-09-19T08:19:09;7.60;;;1.87;;
13897;SDS011;7019;50.766;4.474;2023-09-19T08:21:38;6.20;;;1.80;;
13897;SDS011;7019;50.766;4.474;2023-09-19T08:24:05;9.07;;;1.70;;
13897;SDS011;7019;50.766;4.474;2023-09-19T08:26:34;6.63;;;1.47;;
13897;SDS011;7019;50.766;4.474;2023-09-19T08:29:03;7.23;;;1.70;;
13897;SDS011;7019;50.766;4.474;2023-09-19T08:31:32;12.30;;;2.07;;
13897;SDS011;7019;50.766;4.474;2023-09-19T08:33:59;5.90;;;1.73;;
13897;SDS011;7019;50.766;4.474;2023-09-19T08:36:26;10.20;;;1.60;;
13897;SDS011;7019;50.766;4.474;2023-09-19T08:38:54;4.33;;;1.50;;
13897;SDS011;7019;50.766;4.474;2023-09-19T08:41:21;5.90;;;1.40;;
13897;SDS011;7019;50.766;4.474;2023-09-19T08:43:48;5.37;;;1.60;;
13897;SDS011;7019;50.766;4.474;2023-09-19T08:46:16;9.13;;;2.50;;
13897;SDS011;7019;50.766;4.474;2023-09-19T08:48:46;10.23;;;1.90;;
13897;SDS011;7019;50.766;4.474;2023-09-19T08:51:23;6.80;;;1.80;;
13897;SDS011;7019;50.766;4.474;2023-09-19T08:54:03;7.23;;;1.53;;
13897;SDS011;7019;50.766;4.474;2023-09-19T08:56:33;8.00;;;2.00;;
13897;SDS011;7019;50.766;4.474;2023-09-19T08:59:02;11.23;;;2.13;;
13897;SDS011;7019;50.766;4.474;2023-09-19T09:01:32;5.57;;;1.17;;
13897;SDS011;7019;50.766;4.474;2023-09-19T09:04:01;7.17;;;1.47;;
13897;SDS011;7019;50.766;4.474;2023-09-19T09:06:30;9.43;;;2.50;;
13897;SDS011;7019;50.766;4.474;2023-09-19T09:09:00;12.63;;;2.23;;
13897;SDS011;7019;50.766;4.474;2023-09-19T09:11:28;10.63;;;1.70;;
13897;SDS011;7019;50.766;4.474;2023-09-19T09:13:58;9.53;;;1.10;;
13897;SDS011;7019;50.766;4.474;2023-09-19T09:16:25;6.20;;;1.27;;
13897;SDS011;7019;50.766;4.474;2023-09-19T09:18:52;7.17;;;1.30;;
13897;SDS011;7019;50.766;4.474;2023-09-19T09:21:20;6.70;;;1.77;;
13897;SDS011;7019;50.766;4.474;2023-09-19T09:23:47;5.90;;;1.50;;
13897;SDS011;7019;50.766;4.474;2023-09-19T09:26:18;6.07;;;1.13;;
13897;SDS011;7019;50.766;4.474;2023-09-19T09:29:06;4.63;;;1.23;;
13897;SDS011;7019;50.766;4.474;2023-09-19T09:31:33;7.93;;;1.50;;
13897;SDS011;7019;50.766;4.474;2023-09-19T09:34:00;9.43;;;1.80;;
13897;SDS011;7019;50.766;4.474;2023-09-19T09:36:34;6.60;;;1.50;;
13897;SDS011;7019;50.766;4.474;2023-09-19T09:39:02;4.93;;;1.20;;
13897;SDS011;7019;50.766;4.474;2023-09-19T09:41:42;5.93;;;1.53;;
13897;SDS011;7019;50.766;4.474;2023-09-19T09:44:14;9.10;;;1.53;;
13897;SDS011;7019;50.766;4.474;2023-09-19T09:46:42;8.43;;;2.03;;
13897;SDS011;7019;50.766;4.474;2023-09-19T09:49:47;7.83;;;1.20;;
13897;SDS011;7019;50.766;4.474;2023-09-19T09:52:33;6.27;;;1.20;;
13897;SDS011;7019;50.766;4.474;2023-09-19T09:55:11;4.53;;;1.30;;
13897;SDS011;7019;50.766;4.474;2023-09-19T09:57:40;4.27;;;1.53;;
13897;SDS011;7019;50.766;4.474;2023-09-19T10:00:09;3.00;;;1.23;;
13897;SDS011;7019;50.766;4.474;2023-09-19T10:02:45;7.43;;;1.93;;
13897;SDS011;7019;50.766;4.474;2023-09-19T10:05:13;6.50;;;1.30;;
13897;SDS011;7019;50.766;4.474;2023-09-19T10:07:46;9.23;;;1.50;;
13897;SDS011;7019;50.766;4.474;2023-09-19T10:10:28;5.80;;;0.90;;
13897;SDS011;7019;50.766;4.474;2023-09-19T10:13:05;7.20;;;1.10;;
13897;SDS011;7019;50.766;4.474;2023-09-19T10:15:33;5.73;;;1.03;;
13897;SDS011;7019;50.766;4.474;2023-09-19T10:18:01;2.80;;;0.80;;
13897;SDS011;7019;50.766;4.474;2023-09-19T10:20:33;3.43;;;0.83;;
13897;SDS011;7019;50.766;4.474;2023-09-19T10:23:05;4.47;;;1.30;;
13897;SDS011;7019;50.766;4.474;2023-09-19T10:25:38;8.07;;;1.27;;
13897;SDS011;7019;50.766;4.474;2023-09-19T10:28:08;4.93;;;0.90;;
13897;SDS011;7019;50.766;4.474;2023-09-19T10:30:37;3.80;;;0.90;;
13897;SDS011;7019;50.766;4.474;2023-09-19T10:33:09;4.17;;;0.90;;
13897;SDS011;7019;50.766;4.474;2023-09-19T10:35:38;4.20;;;1.13;;
13897;SDS011;7019;50.766;4.474;2023-09-19T10:38:06;5.30;;;1.27;;
13897;SDS011;7019;50.766;4.474;2023-09-19T10:40:36;4.20;;;0.87;;
13897;SDS011;7019;50.766;4.474;2023-09-19T10:43:11;5.70;;;1.00;;
13897;SDS011;7019;50.766;4.474;2023-09-19T10:45:44;5.87;;;1.10;;
13897;SDS011;7019;50.766;4.474;2023-09-19T10:48:14;3.33;;;0.80;;
13897;SDS011;7019;50.766;4.474;2023-09-19T10:50:44;3.33;;;1.00;;
13897;SDS011;7019;50.766;4.474;2023-09-19T10:53:15;4.27;;;0.90;;
13897;SDS011;7019;50.766;4.474;2023-09-19T10:55:48;5.90;;;1.20;;
13897;SDS011;7019;50.766;4.474;2023-09-19T10:58:30;6.03;;;0.93;;
13897;SDS011;7019;50.766;4.474;2023-09-19T11:01:00;4.33;;;1.13;;
13897;SDS011;7019;50.766;4.474;2023-09-19T11:03:37;3.03;;;1.10;;
13897;SDS011;7019;50.766;4.474;2023-09-19T11:06:09;6.27;;;1.23;;
13897;SDS011;7019;50.766;4.474;2023-09-19T11:08:57;4.27;;;0.90;;
13897;SDS011;7019;50.766;4.474;2023-09-19T11:11:48;3.37;;;0.73;;
13897;SDS011;7019;50.766;4.474;2023-09-19T11:14:30;5.67;;;1.10;;
13897;SDS011;7019;50.766;4.474;2023-09-19T11:25:52;4.67;;;1.33;;
13897;SDS011;7019;50.766;4.474;2023-09-19T11:28:29;2.83;;;0.73;;
13897;SDS011;7019;50.766;4.474;2023-09-19T11:30:58;3.83;;;0.90;;
13897;SDS011;7019;50.766;4.474;2023-09-19T11:33:25;7.23;;;0.87;;
13897;SDS011;7019;50.766;4.474;2023-09-19T11:35:58;4.27;;;0.80;;
13897;SDS011;7019;50.766;4.474;2023-09-19T11:41:38;2.53;;;0.93;;
13897;SDS011;7019;50.766;4.474;2023-09-19T11:47:01;3.30;;;0.73;;
13897;SDS011;7019;50.766;4.474;2023-09-19T11:49:29;4.07;;;0.83;;
13897;SDS011;7019;50.766;4.474;2023-09-19T11:51:59;2.40;;;0.87;;
13897;SDS011;7019;50.766;4.474;2023-09-19T11:54:29;3.30;;;0.80;;
13897;SDS011;7019;50.766;4.474;2023-09-19T11:56:58;3.93;;;0.60;;
13897;SDS011;7019;50.766;4.474;2023-09-19T11:59:26;2.80;;;0.83;;
13897;SDS011;7019;50.766;4.474;2023-09-19T12:01:55;2.90;;;0.93;;
13897;SDS011;7019;50.766;4.474;2023-09-19T12:04:37;2.87;;;0.70;;
13897;SDS011;7019;50.766;4.474;2023-09-19T12:07:08;1.40;;;0.73;;
13897;SDS011;7019;50.766;4.474;2023-09-19T12:09:40;4.00;;;0.80;;
13897;SDS011;7019;50.766;4.474;2023-09-19T12:12:09;1.53;;;0.53;;
13897;SDS011;7019;50.766;4.474;2023-09-19T12:14:40;4.03;;;0.67;;
13897;SDS011;7019;50.766;4.474;2023-09-19T12:17:08;7.13;;;0.90;;
13897;SDS011;7019;50.766;4.474;2023-09-19T12:19:40;4.87;;;1.00;;
13897;SDS011;7019;50.766;4.474;2023-09-19T12:22:16;4.03;;;0.93;;
13897;SDS011;7019;50.766;4.474;2023-09-19T12:24:45;4.50;;;0.70;;
13897;SDS011;7019;50.766;4.474;2023-09-19T12:27:13;5.33;;;0.60;;
13897;SDS011;7019;50.766;4.474;2023-09-19T12:29:43;5.47;;;0.83;;
13897;SDS011;7019;50.766;4.474;2023-09-19T12:32:11;1.90;;;0.67;;
13897;SDS011;7019;50.766;4.474;2023-09-19T12:34:49;1.83;;;0.60;;
13897;SDS011;7019;50.766;4.474;2023-09-19T12:37:17;4.17;;;1.13;;
13897;SDS011;7019;50.766;4.474;2023-09-19T12:39:48;4.10;;;0.70;;
13897;SDS011;7019;50.766;4.474;2023-09-19T12:42:18;3.53;;;0.60;;
13897;SDS011;7019;50.766;4.474;2023-09-19T12:44:46;5.07;;;0.90;;
13897;SDS011;7019;50.766;4.474;2023-09-19T12:47:17;4.00;;;0.60;;
13897;SDS011;7019;50.766;4.474;2023-09-19T12:52:40;2.60;;;0.50;;
13897;SDS011;7019;50.766;4.474;2023-09-19T12:55:19;3.37;;;0.80;;
13897;SDS011;7019;50.766;4.474;2023-09-19T12:57:58;3.33;;;0.63;;
13897;SDS011;7019;50.766;4.474;2023-09-19T13:00:35;3.73;;;0.93;;
13897;SDS011;7019;50.766;4.474;2023-09-19T13:03:13;2.20;;;0.63;;
13897;SDS011;7019;50.766;4.474;2023-09-19T13:05:48;3.50;;;1.00;;
13897;SDS011;7019;50.766;4.474;2023-09-19T13:08:17;2.23;;;0.50;;
13897;SDS011;7019;50.766;4.474;2023-09-19T13:11:04;1.63;;;0.70;;
13897;SDS011;7019;50.766;4.474;2023-09-19T13:13:35;3.87;;;0.77;;
13897;SDS011;7019;50.766;4.474;2023-09-19T13:16:03;2.37;;;0.93;;
13897;SDS011;7019;50.766;4.474;2023-09-19T13:18:41;2.13;;;0.60;;
13897;SDS011;7019;50.766;4.474;2023-09-19T13:21:12;3.27;;;0.50;;
13897;SDS011;7019;50.766;4.474;2023-09-19T13:23:48;4.10;;;0.93;;
13897;SDS011;7019;50.766;4.474;2023-09-19T13:26:19;3.27;;;0.57;;
13897;SDS011;7019;50.766;4.474;2023-09-19T13:28:47;3.47;;;0.80;;
13897;SDS011;7019;50.766;4.474;2023-09-19T13:31:15;3.43;;;0.90;;
13897;SDS011;7019;50.766;4.474;2023-09-19T13:33:43;2.83;;;0.37;;
13897;SDS011;7019;50.766;4.474;2023-09-19T13:36:13;1.17;;;0.50;;
13897;SDS011;7019;50.766;4.474;2023-09-19T13:38:40;3.80;;;0.50;;
13897;SDS011;7019;50.766;4.474;2023-09-19T13:41:08;1.53;;;0.70;;
13897;SDS011;7019;50.766;4.474;2023-09-19T13:43:36;3.27;;;1.03;;
13897;SDS011;7019;50.766;4.474;2023-09-19T13:46:03;1.97;;;0.60;;
13897;SDS011;7019;50.766;4.474;2023-09-19T13:48:32;3.00;;;0.80;;
13897;SDS011;7019;50.766;4.474;2023-09-19T13:51:03;2.07;;;0.70;;
13897;SDS011;7019;50.766;4.474;2023-09-19T13:53:32;1.70;;;0.60;;
13897;SDS011;7019;50.766;4.474;2023-09-19T13:55:59;3.50;;;0.60;;
13897;SDS011;7019;50.766;4.474;2023-09-19T13:58:26;3.47;;;0.70;;
13897;SDS011;7019;50.766;4.474;2023-09-19T14:00:56;3.93;;;0.80;;
13897;SDS011;7019;50.766;4.474;2023-09-19T14:03:23;4.17;;;1.27;;
13897;SDS011;7019;50.766;4.474;2023-09-19T14:05:53;3.17;;;0.70;;
13897;SDS011;7019;50.766;4.474;2023-09-19T14:08:20;1.80;;;0.57;;
13897;SDS011;7019;50.766;4.474;2023-09-19T14:10:50;2.43;;;0.67;;
13897;SDS011;7019;50.766;4.474;2023-09-19T14:13:18;3.23;;;0.60;;
13897;SDS011;7019;50.766;4.474;2023-09-19T14:15:45;3.30;;;0.53;;
13897;SDS011;7019;50.766;4.474;2023-09-19T14:18:12;4.87;;;0.70;;
13897;SDS011;7019;50.766;4.474;2023-09-19T14:20:39;1.87;;;0.40;;
13897;SDS011;7019;50.766;4.474;2023-09-19T14:23:07;4.37;;;0.90;;
13897;SDS011;7019;50.766;4.474;2023-09-19T14:25:34;2.83;;;0.90;;
13897;SDS011;7019;50.766;4.474;2023-09-19T14:28:05;2.83;;;0.87;;
13897;SDS011;7019;50.766;4.474;2023-09-19T14:30:33;7.10;;;0.80;;
13897;SDS011;7019;50.766;4.474;2023-09-19T14:33:02;4.13;;;0.90;;
13897;SDS011;7019;50.766;4.474;2023-09-19T14:35:30;2.43;;;0.80;;
13897;SDS011;7019;50.766;4.474;2023-09-19T14:37:57;2.17;;;0.70;;
13897;SDS011;7019;50.766;4.474;2023-09-19T14:40:24;2.50;;;0.80;;
13897;SDS011;7019;50.766;4.474;2023-09-19T14:42:52;4.80;;;1.03;;
13897;SDS011;7019;50.766;4.474;2023-09-19T14:45:21;2.83;;;0.53;;
13897;SDS011;7019;50.766;4.474;2023-09-19T14:47:50;3.30;;;1.23;;
13897;SDS011;7019;50.766;4.474;2023-09-19T14:50:19;3.03;;;0.80;;
13897;SDS011;7019;50.766;4.474;2023-09-19T14:52:47;2.37;;;0.87;;
13897;SDS011;7019;50.766;4.474;2023-09-19T14:55:16;3.90;;;0.80;;
13897;SDS011;7019;50.766;4.474;2023-09-19T14:57:48;5.43;;;1.20;;
13897;SDS011;7019;50.766;4.474;2023-09-19T15:00:16;2.23;;;1.10;;
13897;SDS011;7019;50.766;4.474;2023-09-19T15:02:47;4.00;;;1.00;;
13897;SDS011;7019;50.766;4.474;2023-09-19T15:05:15;4.00;;;1.57;;
13897;SDS011;7019;50.766;4.474;2023-09-19T15:07:42;2.67;;;0.90;;
13897;SDS011;7019;50.766;4.474;2023-09-19T15:10:10;4.67;;;1.20;;
13897;SDS011;7019;50.766;4.474;2023-09-19T15:12:38;6.00;;;1.63;;
13897;SDS011;7019;50.766;4.474;2023-09-19T15:15:05;4.33;;;1.10;;
13897;SDS011;7019;50.766;4.474;2023-09-19T15:17:33;3.93;;;0.83;;
13897;SDS011;7019;50.766;4.474;2023-09-19T15:20:03;3.80;;;1.00;;
13897;SDS011;7019;50.766;4.474;2023-09-19T15:22:32;2.40;;;1.00;;
13897;SDS011;7019;50.766;4.474;2023-09-19T15:24:59;3.13;;;1.10;;
13897;SDS011;7019;50.766;4.474;2023-09-19T15:27:27;5.80;;;1.17;;
13897;SDS011;7019;50.766;4.474;2023-09-19T15:29:56;3.83;;;1.20;;
13897;SDS011;7019;50.766;4.474;2023-09-19T15:32:24;4.63;;;0.90;;